Time;durP1;ratioP1;P1;durP2;ratioP2;P2;SDS_P1;SDS_P2;PMS_P1;PMS_P2;Temp;Humidity;BMP_temperature;BMP_pressure;BME280_temperature;BME280_humidity;BME280_pressure;Samples;Min_cycle;Max_cycle;Signal;HPM_P1;HPM_P2
2023/08/09 00:01:10;;;;;;;;;;;12.70;99.90;;;;;;5133297;27;20011;-44
2023/08/09 00:03:36;;;;;;;;;;;12.70;99.90;;;;;;5134318;27;20389;-47
2023/08/09 00:06:01;;;;;;;;;;;12.70;99.90;;;;;;5134170;27;19908;-45
2023/08/09 00:08:27;;;;;;;;;;;12.70;99.90;;;;;;5132871;27;19926;-46
2023/08/09 00:10:52;;;;;;;;;;;12.70;99.90;;;;;;5133889;27;20009;-45
2023/08/09 00:13:18;;;;;;;;;;;12.70;99.90;;;;;;5134064;27;19907;-47
2023/08/09 00:15:43;;;;;;;;;;;12.70;99.90;;;;;;5133225;27;19915;-46
2023/08/09 00:18:09;;;;;;;;;;;12.70;99.90;;;;;;5133961;27;20056;-49
2023/08/09 00:20:36;;;;;;;;;;;12.70;99.90;;;;;;5150257;27;19911;-46
2023/08/09 00:23:01;;;;;;;;;;;12.70;99.90;;;;;;5153557;27;19918;-45
2023/08/09 00:25:27;;;;;;;;;;;12.70;99.90;;;;;;5154797;27;19911;-45
2023/08/09 00:27:53;;;;;;;;;;;12.70;99.90;;;;;;5154041;27;19919;-46
2023/08/09 00:30:18;;;;;;;;;;;12.60;99.90;;;;;;5153860;27;20368;-46
2023/08/09 00:32:44;;;;;;;;;;;12.70;99.90;;;;;;5154548;27;19907;-45
2023/08/09 00:35:09;;;;;;;;;;;12.70;99.90;;;;;;5154445;27;20001;-46
2023/08/09 00:37:35;;;;;;;;;;;12.60;99.90;;;;;;5143262;27;19919;-47
2023/08/09 00:40:05;;;;;;;;;;;12.60;99.90;;;;;;5133751;28;19907;-45
2023/08/09 00:42:30;;;;;;;;;;;12.60;99.90;;;;;;5133965;28;19908;-47
2023/08/09 00:44:56;;;;;;;;;;;12.70;99.90;;;;;;5132866;28;19945;-45
2023/08/09 00:47:21;;;;;;;;;;;12.70;99.90;;;;;;5133579;27;19915;-47
2023/08/09 00:49:47;;;;;;;;;;;12.70;99.90;;;;;;5133632;28;19915;-45
2023/08/09 00:52:12;;;;;;;;;;;12.80;99.90;;;;;;5132984;28;20002;-49
2023/08/09 00:54:38;;;;;;;;;;;12.80;99.90;;;;;;5133649;28;19908;-43
2023/08/09 00:57:05;;;;;;;;;;;12.80;99.90;;;;;;5133365;27;19908;-47
2023/08/09 00:59:30;;;;;;;;;;;12.90;99.90;;;;;;5132911;28;20385;-46
2023/08/09 01:01:56;;;;;;;;;;;12.90;99.90;;;;;;5133490;28;19908;-45
2023/08/09 01:04:21;;;;;;;;;;;12.90;99.90;;;;;;5133309;28;19915;-47
2023/08/09 01:06:56;;;;;;;;;;;13.00;99.90;;;;;;5132752;27;20342;-49
2023/08/09 01:09:40;;;;;;;;;;;12.90;99.90;;;;;;5133504;28;19918;-44
2023/08/09 01:12:10;;;;;;;;;;;13.00;99.90;;;;;;5132737;28;19952;-45
2023/08/09 01:14:37;;;;;;;;;;;12.90;99.90;;;;;;5133485;28;19908;-47
2023/08/09 01:17:04;;;;;;;;;;;12.90;99.90;;;;;;5152411;27;19907;-46
2023/08/09 01:19:36;;;;;;;;;;;12.90;99.90;;;;;;5154518;27;19999;-47
2023/08/09 01:22:07;;;;;;;;;;;13.00;99.90;;;;;;5158019;27;20417;-48
2023/08/09 01:24:33;;;;;;;;;;;13.00;99.90;;;;;;5158067;27;19954;-50
2023/08/09 01:26:58;;;;;;;;;;;13.00;99.90;;;;;;5156781;27;19995;-47
2023/08/09 01:29:24;;;;;;;;;;;13.00;99.90;;;;;;5158118;27;19950;-46
2023/08/09 01:31:50;;;;;;;;;;;13.00;99.90;;;;;;5156098;27;19911;-45
2023/08/09 01:34:16;;;;;;;;;;;12.90;99.90;;;;;;5143797;27;20413;-46
2023/08/09 01:36:42;;;;;;;;;;;12.90;99.90;;;;;;5152072;27;19914;-46
2023/08/09 01:39:11;;;;;;;;;;;12.90;99.90;;;;;;5157485;27;19911;-45
2023/08/09 01:41:37;;;;;;;;;;;12.90;99.90;;;;;;5157066;27;20001;-44
2023/08/09 01:44:04;;;;;;;;;;;12.80;99.90;;;;;;5157386;27;19954;-46
2023/08/09 01:46:30;;;;;;;;;;;12.80;99.90;;;;;;5157127;27;19918;-47
2023/08/09 01:49:11;;;;;;;;;;;12.80;99.90;;;;;;5156810;27;19959;-45
2023/08/09 01:51:38;;;;;;;;;;;12.80;99.90;;;;;;5157520;27;19960;-49
2023/08/09 01:54:04;;;;;;;;;;;12.70;99.90;;;;;;5156716;27;19986;-44
2023/08/09 01:56:30;;;;;;;;;;;12.70;99.90;;;;;;5156994;27;19919;-47
2023/08/09 01:58:55;;;;;;;;;;;12.70;99.90;;;;;;5157560;27;19907;-46
2023/08/09 02:01:21;;;;;;;;;;;12.70;99.90;;;;;;5156637;27;19911;-45
2023/08/09 02:03:46;;;;;;;;;;;12.70;99.90;;;;;;5157218;27;20270;-45
2023/08/09 02:06:12;;;;;;;;;;;12.60;99.90;;;;;;5156877;27;20369;-49
2023/08/09 02:08:37;;;;;;;;;;;12.60;99.90;;;;;;5156013;27;19919;-47
2023/08/09 02:11:03;;;;;;;;;;;12.60;99.90;;;;;;5157211;27;19938;-44
2023/08/09 02:13:28;;;;;;;;;;;12.60;99.90;;;;;;5157088;27;20050;-44
2023/08/09 02:15:54;;;;;;;;;;;12.60;99.90;;;;;;5155902;27;19918;-47
2023/08/09 02:18:19;;;;;;;;;;;12.60;99.90;;;;;;5156872;27;19914;-46
2023/08/09 02:20:45;;;;;;;;;;;12.50;99.90;;;;;;5156458;27;19918;-48
2023/08/09 02:23:10;;;;;;;;;;;12.50;99.90;;;;;;5156126;27;19907;-48
2023/08/09 02:25:36;;;;;;;;;;;12.50;99.90;;;;;;5156472;27;19911;-46
2023/08/09 02:28:01;;;;;;;;;;;12.40;99.90;;;;;;5156752;27;19973;-47
2023/08/09 02:30:28;;;;;;;;;;;12.30;99.90;;;;;;5155788;27;19908;-47
2023/08/09 02:32:53;;;;;;;;;;;12.30;99.90;;;;;;5156616;27;19907;-47
2023/08/09 02:35:19;;;;;;;;;;;12.30;99.90;;;;;;5154084;27;19907;-45
2023/08/09 02:37:44;;;;;;;;;;;12.30;99.90;;;;;;5135089;27;19961;-45
2023/08/09 02:40:10;;;;;;;;;;;12.30;99.90;;;;;;5135837;27;19908;-45
2023/08/09 02:42:36;;;;;;;;;;;12.20;99.90;;;;;;5135667;27;20387;-45
2023/08/09 02:45:02;;;;;;;;;;;12.20;99.90;;;;;;5135165;27;20394;-44
2023/08/09 02:47:28;;;;;;;;;;;12.20;99.90;;;;;;5135380;27;19919;-45
2023/08/09 02:49:53;;;;;;;;;;;12.20;99.90;;;;;;5134888;27;19914;-48
2023/08/09 02:52:19;;;;;;;;;;;12.20;99.90;;;;;;5135650;27;20380;-46
2023/08/09 02:54:44;;;;;;;;;;;12.20;99.90;;;;;;5135525;27;19915;-49
2023/08/09 02:57:10;;;;;;;;;;;12.20;99.90;;;;;;5134732;27;19969;-45
2023/08/09 02:59:36;;;;;;;;;;;12.10;99.90;;;;;;5135460;27;19960;-48
2023/08/09 03:02:01;;;;;;;;;;;12.20;99.90;;;;;;5135330;27;19908;-48
2023/08/09 03:04:27;;;;;;;;;;;12.20;99.90;;;;;;5134593;27;20389;-47
2023/08/09 03:06:52;;;;;;;;;;;12.10;99.90;;;;;;5135100;27;20431;-46
2023/08/09 03:09:18;;;;;;;;;;;12.10;99.90;;;;;;5135291;27;19912;-46
2023/08/09 03:11:43;;;;;;;;;;;12.10;99.90;;;;;;5134478;27;19908;-46
2023/08/09 03:14:10;;;;;;;;;;;12.10;99.90;;;;;;5135020;27;19918;-46
2023/08/09 03:16:35;;;;;;;;;;;12.10;99.90;;;;;;5146276;27;19919;-46
2023/08/09 03:19:01;;;;;;;;;;;12.10;99.90;;;;;;5154994;27;19911;-47
2023/08/09 03:21:26;;;;;;;;;;;12.10;99.90;;;;;;5155723;27;20377;-47
2023/08/09 03:23:52;;;;;;;;;;;12.20;99.90;;;;;;5155626;27;19946;-48
2023/08/09 03:26:17;;;;;;;;;;;12.10;99.90;;;;;;5154516;27;19973;-48
2023/08/09 03:28:43;;;;;;;;;;;12.20;99.90;;;;;;5155215;27;20392;-48
2023/08/09 03:31:09;;;;;;;;;;;12.10;99.90;;;;;;5155612;27;19957;-47
2023/08/09 03:33:35;;;;;;;;;;;12.10;99.90;;;;;;5154329;27;20380;-47
2023/08/09 03:36:01;;;;;;;;;;;12.10;99.90;;;;;;5155351;27;20039;-47
2023/08/09 03:38:26;;;;;;;;;;;12.10;99.90;;;;;;5155381;27;19956;-46
2023/08/09 03:40:52;;;;;;;;;;;12.10;99.90;;;;;;5154640;27;20255;-47
2023/08/09 03:43:17;;;;;;;;;;;12.00;99.90;;;;;;5152652;27;19923;-47
2023/08/09 03:45:43;;;;;;;;;;;12.00;99.90;;;;;;5155295;27;19907;-44
2023/08/09 03:48:08;;;;;;;;;;;12.00;99.90;;;;;;5145100;27;19923;-46
2023/08/09 03:50:34;;;;;;;;;;;12.00;99.90;;;;;;5134533;27;19960;-46
2023/08/09 03:53:00;;;;;;;;;;;12.00;99.90;;;;;;5134318;27;19912;-46
2023/08/09 03:55:25;;;;;;;;;;;12.00;99.90;;;;;;5133685;27;19914;-47
2023/08/09 03:57:52;;;;;;;;;;;12.00;99.90;;;;;;5134355;27;19929;-47
2023/08/09 04:00:17;;;;;;;;;;;12.00;99.90;;;;;;5133553;27;19993;-46
2023/08/09 04:02:44;;;;;;;;;;;12.00;99.90;;;;;;5134108;27;20350;-46
2023/08/09 04:05:10;;;;;;;;;;;12.00;99.90;;;;;;5134392;27;19912;-46
2023/08/09 04:07:35;;;;;;;;;;;12.00;99.90;;;;;;5133603;27;20022;-48
2023/08/09 04:10:01;;;;;;;;;;;12.00;99.90;;;;;;5134070;27;19914;-46
2023/08/09 04:12:27;;;;;;;;;;;12.00;99.90;;;;;;5134116;27;19907;-47
2023/08/09 04:14:52;;;;;;;;;;;12.00;99.90;;;;;;5133302;27;19907;-46
2023/08/09 04:17:18;;;;;;;;;;;12.00;99.90;;;;;;5133986;27;19942;-45
2023/08/09 04:19:43;;;;;;;;;;;12.10;99.90;;;;;;5134028;27;19911;-47
2023/08/09 04:22:09;;;;;;;;;;;12.10;99.90;;;;;;5133228;27;19911;-43
2023/08/09 04:24:34;;;;;;;;;;;12.00;99.90;;;;;;5154313;27;19914;-46
2023/08/09 04:27:00;;;;;;;;;;;12.00;99.90;;;;;;5154500;27;20374;-46
2023/08/09 04:29:27;;;;;;;;;;;12.00;99.90;;;;;;5153752;27;19907;-47
2023/08/09 04:31:52;;;;;;;;;;;12.00;99.90;;;;;;5154418;27;19907;-45
2023/08/09 04:34:17;;;;;;;;;;;12.00;99.90;;;;;;5154259;27;19917;-46
2023/08/09 04:36:43;;;;;;;;;;;11.90;99.90;;;;;;5153387;27;20324;-46
2023/08/09 04:39:09;;;;;;;;;;;12.00;99.90;;;;;;5154465;27;19915;-46
2023/08/09 04:41:35;;;;;;;;;;;12.00;99.90;;;;;;5154488;27;19960;-46
2023/08/09 04:44:00;;;;;;;;;;;12.00;99.90;;;;;;5135204;27;19923;-46
2023/08/09 04:46:26;;;;;;;;;;;12.00;99.90;;;;;;5133406;28;19908;-45
2023/08/09 04:48:51;;;;;;;;;;;11.90;99.90;;;;;;5133677;28;19958;-50
2023/08/09 04:51:18;;;;;;;;;;;11.90;99.90;;;;;;5132756;28;19907;-46
2023/08/09 04:53:44;;;;;;;;;;;11.90;99.90;;;;;;5133467;27;19919;-46
2023/08/09 04:56:10;;;;;;;;;;;11.90;99.90;;;;;;5137847;27;19918;-45
2023/08/09 04:58:35;;;;;;;;;;;11.90;99.90;;;;;;5137159;27;19908;-47
2023/08/09 05:01:01;;;;;;;;;;;11.90;99.90;;;;;;5137602;27;20350;-47
2023/08/09 05:03:26;;;;;;;;;;;11.90;99.90;;;;;;5137717;27;20065;-45
2023/08/09 05:05:52;;;;;;;;;;;11.90;99.90;;;;;;5136941;27;19998;-45
2023/08/09 05:08:17;;;;;;;;;;;12.00;99.90;;;;;;5137818;27;20007;-46
2023/08/09 05:10:43;;;;;;;;;;;12.10;99.90;;;;;;5136779;27;19911;-46
2023/08/09 05:13:08;;;;;;;;;;;12.10;99.90;;;;;;5137503;27;19922;-48
2023/08/09 05:15:34;;;;;;;;;;;12.10;99.90;;;;;;5137489;27;19960;-46
2023/08/09 05:17:59;;;;;;;;;;;12.20;99.90;;;;;;5136583;27;19908;-46
2023/08/09 05:20:25;;;;;;;;;;;12.20;99.90;;;;;;5137384;27;19914;-48
2023/08/09 05:22:50;;;;;;;;;;;12.10;99.90;;;;;;5137221;27;19933;-45
2023/08/09 05:25:16;;;;;;;;;;;12.20;99.90;;;;;;5136617;27;19908;-47
2023/08/09 05:27:46;;;;;;;;;;;12.20;99.90;;;;;;5137157;27;19915;-46
2023/08/09 05:30:12;;;;;;;;;;;12.20;99.90;;;;;;5137449;27;20357;-45
2023/08/09 05:32:38;;;;;;;;;;;12.20;99.90;;;;;;5136130;27;20003;-47
2023/08/09 05:35:04;;;;;;;;;;;12.20;99.90;;;;;;5137067;27;19960;-44
2023/08/09 05:37:30;;;;;;;;;;;12.20;99.90;;;;;;5137011;27;19930;-47
2023/08/09 05:39:55;;;;;;;;;;;12.20;99.90;;;;;;5136113;27;20354;-46
2023/08/09 05:42:21;;;;;;;;;;;12.20;99.90;;;;;;5151522;27;19911;-45
2023/08/09 05:44:47;;;;;;;;;;;12.30;99.90;;;;;;5157117;27;19919;-45
2023/08/09 05:47:12;;;;;;;;;;;12.30;99.90;;;;;;5138355;27;20290;-47
2023/08/09 05:49:38;;;;;;;;;;;12.40;99.90;;;;;;5137075;27;20286;-45
2023/08/09 05:52:04;;;;;;;;;;;12.40;99.90;;;;;;5149945;27;19998;-45
2023/08/09 05:54:29;;;;;;;;;;;12.50;99.90;;;;;;5149030;27;20370;-46
2023/08/09 05:56:55;;;;;;;;;;;12.50;99.90;;;;;;5116701;27;20389;-46
2023/08/09 05:59:20;;;;;;;;;;;12.60;99.90;;;;;;5115910;28;19915;-47
2023/08/09 06:01:46;;;;;;;;;;;12.70;99.90;;;;;;5143681;27;20023;-47
2023/08/09 06:04:12;;;;;;;;;;;12.70;99.90;;;;;;5157351;27;20432;-47
2023/08/09 06:06:37;;;;;;;;;;;12.80;99.90;;;;;;5138416;27;19919;-48
2023/08/09 06:09:05;;;;;;;;;;;12.80;99.90;;;;;;5135492;27;20004;-43
2023/08/09 06:11:31;;;;;;;;;;;12.90;99.90;;;;;;5136618;27;20284;-46
2023/08/09 06:13:57;;;;;;;;;;;12.90;99.90;;;;;;5137568;27;19994;-44
2023/08/09 06:16:23;;;;;;;;;;;13.00;99.90;;;;;;5135792;27;19958;-48
2023/08/09 06:18:48;;;;;;;;;;;13.10;99.90;;;;;;5135749;27;19947;-47
2023/08/09 06:21:14;;;;;;;;;;;13.20;99.90;;;;;;5135071;27;19974;-45
2023/08/09 06:23:39;;;;;;;;;;;13.30;99.90;;;;;;5135354;27;20388;-46
2023/08/09 06:26:05;;;;;;;;;;;13.40;99.90;;;;;;5117058;27;19907;-46
2023/08/09 06:28:30;;;;;;;;;;;13.50;99.90;;;;;;5136734;27;19926;-45
2023/08/09 06:30:56;;;;;;;;;;;13.50;99.90;;;;;;5135404;27;19914;-46
2023/08/09 06:33:21;;;;;;;;;;;13.70;99.90;;;;;;5135453;27;20346;-46
2023/08/09 06:35:47;;;;;;;;;;;13.70;99.90;;;;;;5134512;27;20010;-49
2023/08/09 06:38:13;;;;;;;;;;;13.90;99.90;;;;;;5131748;27;19915;-45
2023/08/09 06:40:39;;;;;;;;;;;13.90;99.90;;;;;;5132536;27;20331;-46
2023/08/09 06:43:04;;;;;;;;;;;14.00;99.90;;;;;;5131765;27;19919;-43
2023/08/09 06:45:30;;;;;;;;;;;14.10;99.90;;;;;;5130413;27;19981;-45
2023/08/09 06:47:56;;;;;;;;;;;14.20;99.90;;;;;;5134936;27;19934;-46
2023/08/09 06:50:23;;;;;;;;;;;14.30;99.90;;;;;;5134202;27;19934;-45
2023/08/09 06:52:48;;;;;;;;;;;14.40;99.90;;;;;;5134973;27;20076;-47
2023/08/09 06:55:14;;;;;;;;;;;14.50;99.90;;;;;;5135116;27;20388;-44
2023/08/09 06:57:39;;;;;;;;;;;14.60;99.90;;;;;;5133978;27;19911;-45
2023/08/09 07:00:05;;;;;;;;;;;14.60;99.90;;;;;;5134855;27;19911;-45
2023/08/09 07:02:33;;;;;;;;;;;14.70;99.90;;;;;;5134847;27;19930;-48
2023/08/09 07:05:00;;;;;;;;;;;14.80;99.90;;;;;;5133686;27;20150;-47
2023/08/09 07:07:26;;;;;;;;;;;14.90;99.90;;;;;;5136175;27;19920;-43
2023/08/09 07:09:52;;;;;;;;;;;15.00;99.90;;;;;;5134662;27;20380;-45
2023/08/09 07:12:19;;;;;;;;;;;15.00;99.90;;;;;;5133847;27;20422;-43
2023/08/09 07:14:45;;;;;;;;;;;15.10;99.90;;;;;;5134606;27;19908;-46
2023/08/09 07:17:11;;;;;;;;;;;15.20;99.90;;;;;;5132847;27;19918;-46
2023/08/09 07:19:36;;;;;;;;;;;15.30;99.90;;;;;;5134553;27;19908;-45
2023/08/09 07:22:02;;;;;;;;;;;15.40;99.90;;;;;;5134472;27;20400;-47
2023/08/09 07:24:27;;;;;;;;;;;15.40;99.90;;;;;;5133848;27;19912;-44
2023/08/09 07:26:53;;;;;;;;;;;15.50;99.90;;;;;;5134196;27;19964;-47
2023/08/09 07:29:18;;;;;;;;;;;15.60;99.90;;;;;;5134341;27;20397;-45
2023/08/09 07:31:44;;;;;;;;;;;15.70;99.90;;;;;;5133459;27;19908;-46
2023/08/09 07:34:10;;;;;;;;;;;15.80;99.90;;;;;;5134412;27;19915;-46
2023/08/09 07:36:35;;;;;;;;;;;15.90;99.90;;;;;;5135595;27;20641;-45
2023/08/09 07:39:01;;;;;;;;;;;16.00;99.90;;;;;;5133188;27;19908;-46
2023/08/09 07:41:26;;;;;;;;;;;16.10;99.90;;;;;;5144136;27;19918;-44
2023/08/09 07:43:52;;;;;;;;;;;16.10;99.90;;;;;;5130052;27;19926;-46
2023/08/09 07:46:17;;;;;;;;;;;16.20;99.90;;;;;;5133039;27;20003;-44
2023/08/09 07:48:43;;;;;;;;;;;16.30;99.90;;;;;;5134373;27;19935;-47
2023/08/09 07:51:11;;;;;;;;;;;16.30;99.90;;;;;;5131513;27;19912;-44
2023/08/09 07:53:37;;;;;;;;;;;16.40;99.90;;;;;;5127892;27;20032;-47
2023/08/09 07:56:03;;;;;;;;;;;16.50;99.90;;;;;;5135134;27;20021;-47
2023/08/09 07:58:29;;;;;;;;;;;16.60;99.90;;;;;;5125446;27;19998;-44
2023/08/09 08:00:54;;;;;;;;;;;16.70;99.90;;;;;;5130392;27;19908;-44
2023/08/09 08:03:19;;;;;;;;;;;16.90;99.90;;;;;;5126336;27;19922;-45
2023/08/09 08:05:45;;;;;;;;;;;16.90;99.90;;;;;;5125567;27;19956;-45
2023/08/09 08:08:11;;;;;;;;;;;17.00;99.90;;;;;;5127203;27;20380;-44
2023/08/09 08:10:37;;;;;;;;;;;17.10;99.90;;;;;;5133399;27;20393;-46
2023/08/09 08:13:02;;;;;;;;;;;17.10;99.90;;;;;;5130444;27;19907;-44
2023/08/09 08:15:28;;;;;;;;;;;17.10;99.90;;;;;;5137760;27;19921;-44
2023/08/09 08:17:54;;;;;;;;;;;17.10;99.90;;;;;;5133314;27;20358;-44
2023/08/09 08:20:20;;;;;;;;;;;17.20;99.90;;;;;;5132746;27;19938;-45
2023/08/09 08:22:48;;;;;;;;;;;17.30;99.90;;;;;;5132298;27;19951;-44
2023/08/09 08:25:14;;;;;;;;;;;17.40;99.90;;;;;;5133038;27;20378;-44
2023/08/09 08:27:40;;;;;;;;;;;17.40;99.90;;;;;;5129577;27;19923;-46
2023/08/09 08:30:08;;;;;;;;;;;17.40;99.90;;;;;;5127145;27;19911;-45
2023/08/09 08:32:33;;;;;;;;;;;17.50;99.90;;;;;;5126760;27;19919;-44
2023/08/09 08:35:02;;;;;;;;;;;17.60;99.90;;;;;;5129602;27;19919;-44
2023/08/09 08:37:28;;;;;;;;;;;17.60;99.90;;;;;;5133265;27;19911;-45
2023/08/09 08:39:53;;;;;;;;;;;17.70;99.90;;;;;;5113551;28;20310;-45
2023/08/09 08:42:19;;;;;;;;;;;17.80;99.90;;;;;;5112784;28;19912;-44
2023/08/09 08:44:44;;;;;;;;;;;17.90;99.90;;;;;;5141323;27;19994;-45
2023/08/09 08:47:10;;;;;;;;;;;18.00;99.90;;;;;;5154417;27;20015;-45
2023/08/09 08:49:38;;;;;;;;;;;18.10;99.90;;;;;;5136182;27;20060;-43
2023/08/09 08:52:06;;;;;;;;;;;18.10;99.90;;;;;;5114688;28;19918;-44
2023/08/09 08:54:32;;;;;;;;;;;18.00;99.90;;;;;;5134612;27;19911;-44
2023/08/09 08:56:58;;;;;;;;;;;18.00;99.90;;;;;;5151566;27;20329;-43
2023/08/09 08:59:23;;;;;;;;;;;18.10;99.90;;;;;;5152846;27;19907;-44
2023/08/09 09:01:49;;;;;;;;;;;18.20;99.90;;;;;;5152484;27;19934;-46
2023/08/09 09:04:15;;;;;;;;;;;18.30;99.90;;;;;;5141934;27;20002;-44
2023/08/09 09:06:41;;;;;;;;;;;18.40;99.90;;;;;;5132043;28;19915;-44
2023/08/09 09:09:17;;;;;;;;;;;18.60;99.90;;;;;;5133547;28;19943;-43
2023/08/09 09:11:43;;;;;;;;;;;18.60;99.90;;;;;;5132996;28;19907;-43
2023/08/09 09:14:12;;;;;;;;;;;18.60;99.90;;;;;;5141644;27;20010;-43
2023/08/09 09:16:37;;;;;;;;;;;18.60;99.90;;;;;;5154139;27;20342;-44
2023/08/09 09:19:03;;;;;;;;;;;18.70;99.90;;;;;;5153372;27;19911;-46
2023/08/09 09:21:30;;;;;;;;;;;18.90;99.90;;;;;;5154073;27;19914;-47
2023/08/09 09:23:56;;;;;;;;;;;18.90;99.90;;;;;;5146451;27;19911;-47
2023/08/09 09:26:23;;;;;;;;;;;18.70;99.90;;;;;;5133473;28;19960;-47
2023/08/09 09:28:48;;;;;;;;;;;18.60;99.90;;;;;;5133272;28;20002;-44
2023/08/09 09:31:17;;;;;;;;;;;18.50;99.90;;;;;;5132636;28;19994;-45
2023/08/09 09:33:51;;;;;;;;;;;18.60;99.90;;;;;;5137355;27;19998;-44
2023/08/09 09:36:17;;;;;;;;;;;18.80;99.90;;;;;;5153629;27;19911;-46
2023/08/09 09:38:44;;;;;;;;;;;19.10;99.90;;;;;;5153217;27;19959;-44
2023/08/09 09:41:10;;;;;;;;;;;19.10;99.90;;;;;;5155991;27;20273;-43
2023/08/09 09:43:39;;;;;;;;;;;19.00;99.90;;;;;;5154003;27;19972;-43
2023/08/09 09:46:16;;;;;;;;;;;18.90;99.90;;;;;;5136318;27;19908;-43
2023/08/09 09:48:45;;;;;;;;;;;18.80;99.90;;;;;;5136878;27;19923;-44
2023/08/09 09:51:10;;;;;;;;;;;18.70;99.90;;;;;;5136891;27;19915;-44
2023/08/09 09:53:37;;;;;;;;;;;18.90;99.90;;;;;;5138925;27;19911;-44
2023/08/09 09:56:02;;;;;;;;;;;19.20;99.90;;;;;;5157487;27;19951;-45
2023/08/09 09:58:28;;;;;;;;;;;19.50;99.90;;;;;;5157609;27;19993;-44
2023/08/09 10:00:54;;;;;;;;;;;19.50;99.90;;;;;;5156572;27;19997;-45
2023/08/09 10:03:23;;;;;;;;;;;19.40;99.90;;;;;;5156712;27;19908;-46
2023/08/09 10:05:49;;;;;;;;;;;19.20;99.90;;;;;;5136577;27;19914;-44
2023/08/09 10:08:16;;;;;;;;;;;19.20;99.90;;;;;;5135875;27;19915;-44
2023/08/09 10:10:43;;;;;;;;;;;19.30;99.90;;;;;;5136461;27;20306;-44
2023/08/09 10:13:09;;;;;;;;;;;19.30;99.90;;;;;;5135745;27;19908;-47
2023/08/09 10:15:40;;;;;;;;;;;19.60;99.90;;;;;;5155446;27;20241;-43
2023/08/09 10:18:10;;;;;;;;;;;19.90;99.90;;;;;;5157211;27;19919;-46
2023/08/09 10:20:41;;;;;;;;;;;20.00;99.90;;;;;;5156348;27;19907;-45
2023/08/09 10:23:07;;;;;;;;;;;20.10;99.90;;;;;;5157159;27;19907;-43
2023/08/09 10:25:43;;;;;;;;;;;19.80;99.90;;;;;;5137548;27;19915;-43
2023/08/09 10:28:09;;;;;;;;;;;19.70;99.90;;;;;;5135196;27;19923;-43
2023/08/09 10:30:42;;;;;;;;;;;19.80;99.90;;;;;;5136184;27;19908;-45
2023/08/09 10:33:09;;;;;;;;;;;19.90;99.90;;;;;;5136125;27;19960;-46
2023/08/09 10:35:43;;;;;;;;;;;19.90;99.90;;;;;;5153929;27;19911;-45
2023/08/09 10:38:12;;;;;;;;;;;19.70;99.90;;;;;;5156770;27;19907;-45
2023/08/09 10:40:40;;;;;;;;;;;19.60;99.90;;;;;;5156667;27;19997;-44
2023/08/09 10:43:05;;;;;;;;;;;19.50;99.90;;;;;;5155538;27;20428;-44
2023/08/09 10:45:31;;;;;;;;;;;19.70;99.90;;;;;;5138702;27;19955;-46
2023/08/09 10:48:35;;;;;;;;;;;19.90;99.90;;;;;;5135667;27;19922;-44
2023/08/09 10:51:12;;;;;;;;;;;20.10;99.90;;;;;;5059553;28;19923;-43
2023/08/09 10:53:51;;;;;;;;;;;20.30;99.90;;;;;;5072245;28;19909;-44
2023/08/09 10:56:31;;;;;;;;;;;20.40;99.90;;;;;;5124027;27;19914;-45
2023/08/09 10:59:19;;;;;;;;;;;20.40;99.90;;;;;;5156189;27;19907;-46
2023/08/09 11:01:45;;;;;;;;;;;20.60;99.90;;;;;;5141755;27;20190;-44
2023/08/09 11:04:14;;;;;;;;;;;20.90;99.90;;;;;;5134881;27;19907;-45
2023/08/09 11:06:39;;;;;;;;;;;21.00;99.90;;;;;;5135351;27;19919;-44
2023/08/09 11:09:09;;;;;;;;;;;21.10;99.90;;;;;;5135399;27;19907;-46
2023/08/09 11:11:35;;;;;;;;;;;21.10;98.50;;;;;;5146782;27;20366;-44
2023/08/09 11:14:01;;;;;;;;;;;21.20;97.90;;;;;;5155471;27;19911;-43
2023/08/09 11:16:27;;;;;;;;;;;21.30;98.90;;;;;;5155316;27;19914;-45
2023/08/09 11:19:05;;;;;;;;;;;21.30;95.30;;;;;;5155813;27;19907;-45
2023/08/09 11:21:41;;;;;;;;;;;21.00;96.70;;;;;;5144002;27;19911;-44
2023/08/09 11:24:07;;;;;;;;;;;20.80;97.10;;;;;;5134405;27;20347;-44
2023/08/09 11:26:34;;;;;;;;;;;20.90;96.10;;;;;;5134936;27;20365;-43
2023/08/09 11:29:00;;;;;;;;;;;21.10;98.60;;;;;;5134897;27;19998;-43
2023/08/09 11:31:26;;;;;;;;;;;21.30;97.80;;;;;;5144809;27;19911;-43
2023/08/09 11:33:58;;;;;;;;;;;21.40;97.00;;;;;;5155586;27;19914;-44
2023/08/09 11:36:28;;;;;;;;;;;21.40;94.00;;;;;;5155654;27;19907;-44
2023/08/09 11:38:53;;;;;;;;;;;21.30;94.60;;;;;;5151001;27;20410;-44
2023/08/09 11:41:21;;;;;;;;;;;21.10;94.20;;;;;;5149285;27;19911;-43
2023/08/09 11:43:47;;;;;;;;;;;20.90;93.70;;;;;;5155078;27;19930;-46
2023/08/09 11:46:13;;;;;;;;;;;20.90;97.20;;;;;;5144780;27;19912;-44
2023/08/09 11:48:39;;;;;;;;;;;20.80;95.50;;;;;;5134576;27;19972;-46
2023/08/09 11:51:10;;;;;;;;;;;20.70;96.00;;;;;;5134619;27;19912;-44
2023/08/09 11:53:38;;;;;;;;;;;20.50;95.10;;;;;;5132946;27;20355;-43
2023/08/09 11:56:05;;;;;;;;;;;20.40;94.40;;;;;;5135460;27;19911;-44
2023/08/09 11:58:35;;;;;;;;;;;20.50;96.20;;;;;;5133709;27;20002;-44
2023/08/09 12:01:11;;;;;;;;;;;20.50;98.30;;;;;;5134365;27;19982;-43
2023/08/09 12:03:37;;;;;;;;;;;20.60;98.70;;;;;;5133898;27;19908;-44
2023/08/09 12:06:03;;;;;;;;;;;20.90;95.90;;;;;;5140971;27;19955;-45
2023/08/09 12:08:35;;;;;;;;;;;21.20;94.80;;;;;;5154984;27;19982;-46
2023/08/09 12:11:01;;;;;;;;;;;21.30;95.00;;;;;;5154926;27;19960;-44
2023/08/09 12:13:26;;;;;;;;;;;21.30;95.90;;;;;;5154137;27;20323;-43
2023/08/09 12:15:52;;;;;;;;;;;21.30;97.20;;;;;;5148534;27;19912;-44
2023/08/09 12:18:17;;;;;;;;;;;21.40;98.20;;;;;;5133990;27;19964;-44
2023/08/09 12:20:43;;;;;;;;;;;21.30;94.50;;;;;;5133139;27;19908;-47
2023/08/09 12:23:08;;;;;;;;;;;21.30;96.50;;;;;;5134135;27;19907;-44
2023/08/09 12:25:34;;;;;;;;;;;21.30;97.30;;;;;;5136929;27;19911;-45
2023/08/09 12:27:59;;;;;;;;;;;21.50;98.50;;;;;;5153979;27;20396;-43
2023/08/09 12:30:25;;;;;;;;;;;21.60;98.00;;;;;;5154627;27;20254;-46
2023/08/09 12:32:50;;;;;;;;;;;21.60;96.80;;;;;;5154576;27;19908;-43
2023/08/09 12:35:16;;;;;;;;;;;21.70;97.50;;;;;;5139830;27;19947;-45
2023/08/09 12:37:41;;;;;;;;;;;21.80;96.10;;;;;;5133897;27;19907;-44
2023/08/09 12:40:07;;;;;;;;;;;21.70;95.90;;;;;;5133641;27;19915;-44
2023/08/09 12:42:33;;;;;;;;;;;21.60;95.50;;;;;;5136097;27;19918;-46
2023/08/09 12:44:58;;;;;;;;;;;21.60;96.50;;;;;;5153789;27;19919;-45
2023/08/09 12:47:24;;;;;;;;;;;21.70;98.20;;;;;;5154509;27;19919;-44
2023/08/09 12:49:49;;;;;;;;;;;21.70;95.20;;;;;;5153514;27;19911;-45
2023/08/09 12:52:15;;;;;;;;;;;21.80;96.30;;;;;;5153950;27;19931;-48
2023/08/09 12:54:41;;;;;;;;;;;22.20;97.80;;;;;;5133624;28;20002;-45
2023/08/09 12:57:07;;;;;;;;;;;22.30;93.90;;;;;;5132838;28;20281;-45
2023/08/09 12:59:33;;;;;;;;;;;22.10;93.80;;;;;;5133566;28;19914;-45
2023/08/09 13:01:58;;;;;;;;;;;21.90;94.90;;;;;;5132788;28;19954;-43
2023/08/09 13:04:24;;;;;;;;;;;21.90;96.40;;;;;;5150822;27;19914;-44
2023/08/09 13:06:50;;;;;;;;;;;21.80;95.10;;;;;;5154127;27;19915;-44
2023/08/09 13:09:17;;;;;;;;;;;22.10;96.20;;;;;;5153539;27;20037;-44
2023/08/09 13:11:44;;;;;;;;;;;22.60;95.80;;;;;;5154150;27;19908;-44
2023/08/09 13:14:10;;;;;;;;;;;22.80;93.30;;;;;;5139136;27;19911;-45
2023/08/09 13:16:35;;;;;;;;;;;23.00;94.10;;;;;;5135590;27;19932;-45
2023/08/09 13:19:01;;;;;;;;;;;23.20;94.70;;;;;;5137373;27;19913;-44
2023/08/09 13:21:26;;;;;;;;;;;23.30;94.70;;;;;;5137571;27;19940;-45
2023/08/09 13:23:52;;;;;;;;;;;22.90;93.30;;;;;;5148262;27;20388;-44
2023/08/09 13:26:17;;;;;;;;;;;22.40;94.60;;;;;;5158111;27;19956;-45
2023/08/09 13:28:43;;;;;;;;;;;21.90;94.80;;;;;;5157942;27;20373;-44
2023/08/09 13:31:09;;;;;;;;;;;21.50;97.30;;;;;;5157346;27;19961;-44
2023/08/09 13:33:35;;;;;;;;;;;21.30;97.50;;;;;;5148575;27;19911;-44
2023/08/09 13:36:01;;;;;;;;;;;21.00;99.00;;;;;;5137095;27;20014;-46
2023/08/09 13:38:31;;;;;;;;;;;20.80;99.90;;;;;;5136446;27;20003;-45
2023/08/09 13:40:57;;;;;;;;;;;20.70;99.90;;;;;;5137077;27;19908;-45
2023/08/09 13:43:23;;;;;;;;;;;20.50;99.90;;;;;;5143086;27;19945;-44
2023/08/09 13:45:49;;;;;;;;;;;20.50;99.90;;;;;;5156748;27;19908;-44
2023/08/09 13:48:14;;;;;;;;;;;20.50;99.90;;;;;;5157723;27;19991;-46
2023/08/09 13:50:40;;;;;;;;;;;20.80;99.90;;;;;;5157672;27;19909;-43
2023/08/09 13:53:06;;;;;;;;;;;21.60;99.90;;;;;;5138977;27;19919;-43
2023/08/09 13:55:32;;;;;;;;;;;21.80;99.90;;;;;;5136791;27;19908;-44
2023/08/09 13:57:57;;;;;;;;;;;21.70;99.90;;;;;;5136750;27;19907;-44
2023/08/09 14:00:23;;;;;;;;;;;22.00;99.90;;;;;;5136104;27;19908;-45
2023/08/09 14:02:49;;;;;;;;;;;22.40;98.90;;;;;;5150640;27;19918;-44
2023/08/09 14:05:15;;;;;;;;;;;22.40;98.70;;;;;;5156768;27;19907;-45
2023/08/09 14:07:41;;;;;;;;;;;22.20;99.90;;;;;;5157321;27;19919;-44
2023/08/09 14:10:06;;;;;;;;;;;21.90;97.80;;;;;;5157290;27;19908;-44
2023/08/09 14:12:32;;;;;;;;;;;21.70;99.10;;;;;;5144997;27;20483;-44